[2025-03-10 00:00:00, 2025-03-10 23:59:59] previous next
| time | temperature | air pressure | humidity | solar radiation | wind speed |
|---|---|---|---|---|---|
| 2025-03-10 07:13:12 | 3.9 | 991.4 | 99.0 | 25.9 | 0.0 |
| 2025-03-10 07:33:11 | 7.0 | 991.8 | 96.0 | 31.9 | 0.0 |
| 2025-03-10 07:53:11 | 7.2 | 991.8 | 83.0 | 49.7 | 0.0 |
| 2025-03-10 08:13:11 | 10.2 | 992.1 | 76.0 | 61.6 | 0.0 |
| 2025-03-10 08:33:12 | 12.5 | 992.1 | 67.0 | 58.3 | 0.0 |
| 2025-03-10 08:53:12 | 9.6 | 992.5 | 77.0 | 59.3 | 0.3 |
| 2025-03-10 09:13:14 | 10.6 | 992.5 | 75.0 | 70.2 | 0.0 |
| 2025-03-10 09:33:12 | 11.0 | 992.5 | 72.0 | 91.2 | 2.1 |
| 2025-03-10 09:53:11 | 12.4 | 992.5 | 70.0 | 121.6 | 0.7 |
| 2025-03-10 10:13:12 | 14.5 | 992.5 | 64.0 | 77.3 | 0.0 |
| 2025-03-10 10:33:11 | 14.2 | 992.5 | 62.0 | 163.4 | 1.1 |
| 2025-03-10 10:53:12 | 14.9 | 992.5 | 57.0 | 120.2 | 0.6 |
| 2025-03-10 11:13:12 | 17.3 | 992.8 | 52.0 | 236.3 | 0.0 |
| 2025-03-10 11:33:11 | 16.3 | 992.5 | 52.0 | 280.4 | 0.0 |
| 2025-03-10 11:53:11 | 16.4 | 992.5 | 53.0 | 276.9 | 0.0 |
| 2025-03-10 12:13:12 | 16.7 | 992.5 | 52.0 | 307.9 | 0.6 |
| 2025-03-10 12:33:11 | 17.4 | 992.1 | 49.0 | 319.5 | 0.7 |
| 2025-03-10 12:53:12 | 19.7 | 992.1 | 44.0 | 323.6 | 0.0 |
| 2025-03-10 13:13:11 | 18.4 | 992.1 | 53.0 | 216.3 | 0.6 |
| 2025-03-10 13:33:12 | 18.4 | 992.1 | 44.0 | 122.2 | 0.4 |
| 2025-03-10 13:53:11 | 17.8 | 992.1 | 48.0 | 93.1 | 0.0 |
| 2025-03-10 14:13:12 | 17.9 | 992.1 | 50.0 | 151.9 | 1.0 |
| 2025-03-10 14:33:11 | 19.4 | 992.1 | 44.0 | 242.1 | 1.1 |
| 2025-03-10 14:53:12 | 19.6 | 992.1 | 51.0 | 203.6 | 2.7 |
| 2025-03-10 15:13:11 | 18.1 | 992.5 | 54.0 | 91.2 | 2.4 |
| 2025-03-10 15:34:40 | 17.2 | 992.5 | 52.0 | 0.0 | 0.0 |
CSV export: /station/IWELLEN5/data?period=20250310T000000/20250310T235959&format=csv&tz=GMT